createdAt,value
2018-12-26T00:00:51.183Z,461
2018-12-26T00:01:58.398Z,461
2018-12-26T00:03:05.597Z,460
2018-12-26T00:04:12.522Z,461
2018-12-26T00:05:19.995Z,461
2018-12-26T00:06:27.347Z,461
2018-12-26T00:07:34.547Z,461
2018-12-26T00:08:41.738Z,461
2018-12-26T00:09:48.932Z,461
2018-12-26T00:10:55.862Z,460
2018-12-26T00:12:03.051Z,460
2018-12-26T00:13:10.251Z,461
2018-12-26T00:14:17.453Z,460
2018-12-26T00:15:24.377Z,461
2018-12-26T00:16:31.570Z,460
2018-12-26T00:17:38.760Z,461
2018-12-26T00:19:00.601Z,460
2018-12-26T00:20:07.979Z,460
2018-12-26T00:21:15.179Z,460
2018-12-26T00:22:22.383Z,460
2018-12-26T00:23:29.308Z,460
2018-12-26T00:24:36.505Z,460
2018-12-26T00:25:43.429Z,461
2018-12-26T00:26:50.629Z,461
2018-12-26T00:27:57.823Z,462
2018-12-26T00:29:05.016Z,462
2018-12-26T00:30:11.936Z,462
2018-12-26T00:31:19.130Z,462
2018-12-26T00:32:26.326Z,462
2018-12-26T00:33:33.518Z,461
2018-12-26T00:34:40.710Z,461
2018-12-26T00:35:47.359Z,461
2018-12-26T00:36:54.555Z,460
2018-12-26T00:38:01.478Z,460
2018-12-26T00:39:08.677Z,461
2018-12-26T00:40:15.870Z,461
2018-12-26T00:41:23.064Z,461
2018-12-26T00:42:30.260Z,462
2018-12-26T00:43:37.468Z,461
2018-12-26T00:44:44.392Z,462
2018-12-26T00:45:51.583Z,460
2018-12-26T00:46:58.503Z,459
2018-12-26T00:48:05.693Z,460
2018-12-26T00:49:12.961Z,461
2018-12-26T00:50:20.152Z,460
2018-12-26T00:51:27.078Z,460
2018-12-26T00:52:34.270Z,459
2018-12-26T00:53:41.464Z,460
2018-12-26T00:54:48.655Z,460
2018-12-26T00:55:55.848Z,460
2018-12-26T00:57:03.042Z,460
2018-12-26T00:58:09.962Z,461
2018-12-26T00:59:17.154Z,461
2018-12-26T01:00:24.354Z,460
2018-12-26T01:01:31.544Z,459
2018-12-26T01:02:38.740Z,461
2018-12-26T01:03:46.040Z,460
2018-12-26T01:04:53.235Z,461
2018-12-26T01:06:00.457Z,461
2018-12-26T01:07:07.654Z,462
2018-12-26T01:08:14.839Z,461
2018-12-26T01:09:22.037Z,460
2018-12-26T01:10:29.235Z,461
2018-12-26T01:11:36.426Z,461
2018-12-26T01:12:43.615Z,462
2018-12-26T01:13:50.806Z,462
2018-12-26T01:14:58.000Z,462
2018-12-26T01:16:04.971Z,461
2018-12-26T01:17:12.163Z,461
2018-12-26T01:18:19.356Z,461
2018-12-26T01:19:26.550Z,461
2018-12-26T01:20:33.481Z,461
2018-12-26T01:21:40.401Z,462
2018-12-26T01:22:47.599Z,462
2018-12-26T01:23:54.790Z,462
2018-12-26T01:25:01.986Z,463
2018-12-26T01:26:09.174Z,464
2018-12-26T01:27:16.454Z,463
2018-12-26T01:28:23.647Z,463
2018-12-26T01:29:30.571Z,464
2018-12-26T01:30:37.763Z,464
2018-12-26T01:31:44.963Z,464
2018-12-26T01:32:52.156Z,462
2018-12-26T01:33:58.803Z,463
2018-12-26T01:35:05.997Z,464
2018-12-26T01:36:13.021Z,464
2018-12-26T01:37:19.672Z,463
2018-12-26T01:38:26.593Z,463
2018-12-26T01:39:33.837Z,462
2018-12-26T01:40:40.747Z,463
2018-12-26T01:41:47.938Z,463
2018-12-26T01:42:55.133Z,463
2018-12-26T01:44:02.317Z,463
2018-12-26T01:45:09.560Z,463
2018-12-26T01:46:16.756Z,464
2018-12-26T01:47:23.409Z,463
2018-12-26T01:48:30.331Z,464
2018-12-26T01:49:37.254Z,463
2018-12-26T01:50:44.443Z,463
2018-12-26T01:51:51.638Z,464
2018-12-26T01:52:58.825Z,465
2018-12-26T01:54:06.017Z,464
2018-12-26T01:55:13.218Z,465
2018-12-26T01:56:28.862Z,465
2018-12-26T01:57:35.784Z,465
2018-12-26T01:58:42.977Z,464
2018-12-26T01:59:50.173Z,464
2018-12-26T02:00:57.370Z,464
2018-12-26T02:02:04.560Z,465
2018-12-26T02:03:11.756Z,463
2018-12-26T02:04:18.955Z,465
2018-12-26T02:05:26.167Z,465
2018-12-26T02:06:33.365Z,465
2018-12-26T02:07:40.564Z,465
2018-12-26T02:08:47.200Z,465
2018-12-26T02:09:54.393Z,464
2018-12-26T02:11:01.585Z,465
2018-12-26T02:12:08.779Z,464
2018-12-26T02:13:15.971Z,464
2018-12-26T02:14:23.163Z,463
2018-12-26T02:15:30.081Z,464
2018-12-26T02:16:37.008Z,464
2018-12-26T02:17:43.931Z,465
2018-12-26T02:18:51.124Z,464
2018-12-26T02:19:58.316Z,465
2018-12-26T02:21:05.507Z,465
2018-12-26T02:22:12.701Z,465
2018-12-26T02:23:19.617Z,465
2018-12-26T02:24:26.813Z,464
2018-12-26T02:25:34.007Z,464
2018-12-26T02:26:41.197Z,465
2018-12-26T02:27:48.161Z,465
2018-12-26T02:28:55.120Z,465
2018-12-26T02:30:02.311Z,464
2018-12-26T02:31:09.518Z,465
2018-12-26T02:32:16.697Z,465
2018-12-26T02:33:23.888Z,466
2018-12-26T02:34:31.079Z,465
2018-12-26T02:35:38.272Z,464
2018-12-26T02:36:45.466Z,465
2018-12-26T02:37:52.660Z,465
2018-12-26T02:38:59.858Z,464
2018-12-26T02:40:07.053Z,464
2018-12-26T02:41:14.249Z,464
2018-12-26T02:42:21.170Z,464
2018-12-26T02:43:28.378Z,463
2018-12-26T02:44:35.560Z,464
2018-12-26T02:45:42.757Z,465
2018-12-26T02:46:49.955Z,465
2018-12-26T02:47:57.147Z,465
2018-12-26T02:49:04.066Z,465
2018-12-26T02:50:11.271Z,464
2018-12-26T02:51:18.470Z,464
2018-12-26T02:52:25.814Z,465
2018-12-26T02:53:32.727Z,464
2018-12-26T02:54:39.922Z,465
2018-12-26T02:55:47.122Z,466
2018-12-26T02:56:54.040Z,466
2018-12-26T02:58:01.229Z,466
2018-12-26T02:59:08.422Z,465
2018-12-26T03:00:15.611Z,466
2018-12-26T03:01:22.800Z,465
2018-12-26T03:02:29.992Z,465
2018-12-26T03:03:36.914Z,465
2018-12-26T03:04:43.830Z,466
2018-12-26T03:05:51.020Z,465
2018-12-26T03:06:58.213Z,465
2018-12-26T03:08:05.405Z,466
2018-12-26T03:09:12.595Z,465
2018-12-26T03:10:19.241Z,466
2018-12-26T03:11:26.451Z,466
2018-12-26T03:12:33.723Z,467
2018-12-26T03:13:40.912Z,466
2018-12-26T03:14:48.110Z,466
2018-12-26T03:15:55.301Z,466
2018-12-26T03:17:02.498Z,465
2018-12-26T03:18:09.696Z,465
2018-12-26T03:19:16.622Z,466
2018-12-26T03:20:23.813Z,465
2018-12-26T03:21:30.748Z,465
2018-12-26T03:22:37.943Z,465
2018-12-26T03:23:45.130Z,465
2018-12-26T03:24:52.325Z,466
2018-12-26T03:25:59.513Z,465
2018-12-26T03:27:06.437Z,466
2018-12-26T03:28:13.619Z,467
2018-12-26T03:29:20.812Z,468
2018-12-26T03:30:28.019Z,466
2018-12-26T03:31:35.211Z,467
2018-12-26T03:32:42.123Z,467
2018-12-26T03:33:49.046Z,468
2018-12-26T03:34:56.243Z,468
2018-12-26T03:36:03.438Z,468
2018-12-26T03:37:10.351Z,467
2018-12-26T03:38:17.553Z,466
2018-12-26T03:39:24.737Z,466
2018-12-26T03:40:31.925Z,467
2018-12-26T03:41:38.836Z,467
2018-12-26T03:42:45.836Z,466
2018-12-26T03:43:52.761Z,466
2018-12-26T03:44:59.410Z,465
2018-12-26T03:46:06.600Z,466
2018-12-26T03:47:13.809Z,466
2018-12-26T03:48:20.727Z,467
2018-12-26T03:49:27.622Z,466
2018-12-26T03:50:34.815Z,466
2018-12-26T03:51:42.004Z,467
2018-12-26T03:52:49.206Z,467
2018-12-26T03:53:56.392Z,468
2018-12-26T03:55:03.317Z,468
2018-12-26T03:56:10.233Z,468
2018-12-26T03:57:17.426Z,468
2018-12-26T03:58:24.358Z,467
2018-12-26T03:59:31.542Z,466
2018-12-26T04:00:38.461Z,467
2018-12-26T04:01:45.384Z,465
2018-12-26T04:02:52.304Z,465
2018-12-26T04:03:59.500Z,466
2018-12-26T04:05:06.690Z,465
2018-12-26T04:06:13.897Z,466
2018-12-26T04:07:21.092Z,468
2018-12-26T04:08:28.282Z,468
2018-12-26T04:09:35.476Z,466
2018-12-26T04:10:42.389Z,466
2018-12-26T04:11:49.596Z,467
2018-12-26T04:12:56.510Z,468
2018-12-26T04:14:03.725Z,468
2018-12-26T04:15:10.906Z,467
2018-12-26T04:16:17.828Z,466
2018-12-26T04:17:25.025Z,466
2018-12-26T04:18:31.645Z,466
2018-12-26T04:19:38.840Z,467
2018-12-26T04:20:46.034Z,467
2018-12-26T04:21:53.222Z,467
2018-12-26T04:23:00.416Z,467
2018-12-26T04:24:07.340Z,468
2018-12-26T04:25:14.529Z,469
2018-12-26T04:26:21.452Z,469
2018-12-26T04:27:28.648Z,468
2018-12-26T04:28:35.988Z,468
2018-12-26T04:29:43.280Z,467
2018-12-26T04:30:50.460Z,466
2018-12-26T04:31:57.649Z,468
2018-12-26T04:33:04.851Z,468
2018-12-26T04:34:11.775Z,468
2018-12-26T04:35:18.976Z,467
2018-12-26T04:36:26.164Z,468
2018-12-26T04:37:33.362Z,467
2018-12-26T04:38:40.550Z,468
2018-12-26T04:39:47.198Z,466
2018-12-26T04:40:54.117Z,466
2018-12-26T04:42:01.315Z,466
2018-12-26T04:43:08.507Z,467
2018-12-26T04:44:15.697Z,468
2018-12-26T04:45:22.890Z,468
2018-12-26T04:46:30.078Z,468
2018-12-26T04:47:36.727Z,469
2018-12-26T04:48:44.003Z,468
2018-12-26T04:49:51.200Z,468
2018-12-26T04:50:58.394Z,468
2018-12-26T04:52:05.321Z,467
2018-12-26T04:53:12.505Z,467
2018-12-26T04:54:19.419Z,467
2018-12-26T04:55:26.616Z,467
2018-12-26T04:56:33.810Z,468
2018-12-26T04:57:40.725Z,466
2018-12-26T04:58:47.648Z,466
2018-12-26T04:59:54.843Z,468
2018-12-26T05:01:02.051Z,467
2018-12-26T05:02:08.973Z,466
2018-12-26T05:03:16.164Z,467
2018-12-26T05:04:22.808Z,467
2018-12-26T05:05:29.996Z,467
2018-12-26T05:06:37.187Z,466
2018-12-26T05:07:44.113Z,468
2018-12-26T05:08:51.306Z,467
2018-12-26T05:09:58.501Z,467
2018-12-26T05:11:05.697Z,467
2018-12-26T05:12:12.344Z,468
2018-12-26T05:13:19.536Z,466
2018-12-26T05:14:26.727Z,467
2018-12-26T05:15:33.920Z,466
2018-12-26T05:16:41.117Z,467
2018-12-26T05:17:48.797Z,468
2018-12-26T05:18:56.042Z,467
2018-12-26T05:20:03.233Z,468
2018-12-26T05:21:10.431Z,468
2018-12-26T05:22:17.623Z,469
2018-12-26T05:23:24.270Z,469
2018-12-26T05:24:31.191Z,469
2018-12-26T05:25:38.386Z,469
2018-12-26T05:26:45.582Z,469
2018-12-26T05:27:52.504Z,470
2018-12-26T05:28:59.699Z,469
2018-12-26T05:30:06.900Z,468
2018-12-26T05:31:13.821Z,467
2018-12-26T05:32:21.016Z,468
2018-12-26T05:33:28.217Z,467
2018-12-26T05:34:35.134Z,468
2018-12-26T05:35:42.065Z,468
2018-12-26T05:36:49.259Z,468
2018-12-26T05:37:56.175Z,470
2018-12-26T05:39:03.090Z,470
2018-12-26T05:40:10.013Z,470
2018-12-26T05:41:16.937Z,470
2018-12-26T05:42:24.127Z,470
2018-12-26T05:43:31.076Z,469
2018-12-26T05:44:38.269Z,469
2018-12-26T05:45:45.461Z,469
2018-12-26T05:46:52.650Z,469
2018-12-26T05:47:59.844Z,468
2018-12-26T05:49:06.772Z,469
2018-12-26T05:50:13.970Z,470
2018-12-26T05:51:21.163Z,469
2018-12-26T05:52:28.366Z,470
2018-12-26T05:53:35.559Z,471
2018-12-26T05:54:42.478Z,471
2018-12-26T05:55:49.669Z,470
2018-12-26T05:56:56.597Z,471
2018-12-26T05:58:03.789Z,471
2018-12-26T05:59:10.729Z,471
2018-12-26T06:00:17.920Z,470
2018-12-26T06:01:25.115Z,469
2018-12-26T06:02:32.306Z,468
2018-12-26T06:03:39.236Z,468
2018-12-26T06:04:46.428Z,468
2018-12-26T06:05:53.615Z,467
2018-12-26T06:07:00.806Z,469
2018-12-26T06:08:07.994Z,469
2018-12-26T06:09:15.186Z,470
2018-12-26T06:10:22.378Z,470
2018-12-26T06:11:29.566Z,469
2018-12-26T06:12:36.492Z,469
2018-12-26T06:13:43.418Z,469
2018-12-26T06:14:50.623Z,469
2018-12-26T06:15:57.819Z,469
2018-12-26T06:17:04.735Z,469
2018-12-26T06:18:11.376Z,470
2018-12-26T06:19:18.568Z,469
2018-12-26T06:20:25.483Z,471
2018-12-26T06:21:32.674Z,470
2018-12-26T06:22:39.588Z,470
2018-12-26T06:23:46.778Z,468
2018-12-26T06:24:53.975Z,468
2018-12-26T06:26:01.163Z,467
2018-12-26T06:27:08.356Z,466
2018-12-26T06:28:15.550Z,467
2018-12-26T06:29:22.825Z,468
2018-12-26T06:30:30.016Z,468
2018-12-26T06:31:36.928Z,468
2018-12-26T06:32:44.130Z,467
2018-12-26T06:33:51.320Z,469
2018-12-26T06:34:58.508Z,469
2018-12-26T06:36:05.424Z,469
2018-12-26T06:37:12.612Z,470
2018-12-26T06:38:19.805Z,470
2018-12-26T06:39:26.996Z,468
2018-12-26T06:40:34.192Z,466
2018-12-26T06:41:41.382Z,466
2018-12-26T06:42:48.295Z,466
2018-12-26T06:43:55.498Z,466
2018-12-26T06:45:02.436Z,466
2018-12-26T06:46:09.341Z,466
2018-12-26T06:47:16.532Z,467
2018-12-26T06:48:23.455Z,469
2018-12-26T06:49:30.645Z,469
2018-12-26T06:50:37.835Z,469
2018-12-26T06:51:44.752Z,470
2018-12-26T06:52:51.944Z,469
2018-12-26T06:53:59.141Z,468
2018-12-26T06:55:06.328Z,469
2018-12-26T06:56:13.516Z,470
2018-12-26T06:57:20.712Z,469
2018-12-26T06:58:27.907Z,468
2018-12-26T06:59:35.099Z,469
2018-12-26T07:00:42.288Z,470
2018-12-26T07:01:49.212Z,469
2018-12-26T07:02:56.130Z,470
2018-12-26T07:04:03.403Z,470
2018-12-26T07:05:10.596Z,471
2018-12-26T07:06:17.786Z,470
2018-12-26T07:07:24.984Z,470
2018-12-26T07:08:32.178Z,470
2018-12-26T07:09:39.371Z,470
2018-12-26T07:10:46.302Z,470
2018-12-26T07:11:53.485Z,469
2018-12-26T07:13:00.683Z,471
2018-12-26T07:14:07.599Z,470
2018-12-26T07:15:14.791Z,471
2018-12-26T07:16:22.081Z,471
2018-12-26T07:17:28.995Z,472
2018-12-26T07:18:35.902Z,470
2018-12-26T07:19:43.161Z,470
2018-12-26T07:20:50.351Z,469
2018-12-26T07:21:57.267Z,469
2018-12-26T07:23:04.234Z,469
2018-12-26T07:24:11.424Z,469
2018-12-26T07:25:18.609Z,470
2018-12-26T07:26:25.253Z,469
2018-12-26T07:27:32.445Z,471
2018-12-26T07:28:39.639Z,470
2018-12-26T07:29:46.827Z,471
2018-12-26T07:30:54.022Z,470
2018-12-26T07:32:01.215Z,472
2018-12-26T07:33:08.144Z,471
2018-12-26T07:34:15.059Z,472
2018-12-26T07:35:22.249Z,470
2018-12-26T07:36:29.643Z,471
2018-12-26T07:37:36.840Z,468
2018-12-26T07:38:44.032Z,467
2018-12-26T07:39:51.225Z,468
2018-12-26T07:40:58.418Z,468
2018-12-26T07:42:05.613Z,468
2018-12-26T07:43:12.809Z,469
2018-12-26T07:44:20.006Z,468
2018-12-26T07:45:27.201Z,468
2018-12-26T07:46:34.394Z,467
2018-12-26T07:47:41.307Z,468
2018-12-26T07:48:48.497Z,468
2018-12-26T07:49:55.414Z,468
2018-12-26T07:51:02.346Z,467
2018-12-26T07:52:09.530Z,465
2018-12-26T07:53:16.721Z,466
2018-12-26T07:54:23.906Z,466
2018-12-26T07:55:31.093Z,466
2018-12-26T07:56:38.289Z,466
2018-12-26T07:57:45.482Z,465
2018-12-26T07:58:52.675Z,465
2018-12-26T07:59:59.597Z,465
2018-12-26T08:01:06.867Z,465
2018-12-26T08:02:14.072Z,465
2018-12-26T08:03:21.473Z,466
2018-12-26T08:04:28.747Z,465
2018-12-26T08:05:35.943Z,465
2018-12-26T08:06:43.134Z,465
2018-12-26T08:07:50.053Z,467
2018-12-26T08:08:57.246Z,465
2018-12-26T08:10:04.440Z,464
2018-12-26T08:11:11.638Z,466
2018-12-26T08:12:18.839Z,464
2018-12-26T08:13:25.764Z,464
2018-12-26T08:14:32.956Z,463
2018-12-26T08:15:40.155Z,462
2018-12-26T08:16:47.079Z,461
2018-12-26T08:17:54.273Z,462
2018-12-26T08:19:01.465Z,460
2018-12-26T08:20:08.664Z,460
2018-12-26T08:21:15.294Z,459
2018-12-26T08:22:22.486Z,459
2018-12-26T08:23:29.408Z,459
2018-12-26T08:24:36.603Z,458
2018-12-26T08:25:43.530Z,458
2018-12-26T08:26:50.450Z,459
2018-12-26T08:27:57.643Z,459
2018-12-26T08:29:04.839Z,458
2018-12-26T08:30:12.033Z,459
2018-12-26T08:31:19.219Z,458
2018-12-26T08:32:26.470Z,459
2018-12-26T08:33:33.655Z,457
2018-12-26T08:34:40.851Z,458
2018-12-26T08:35:47.850Z,459
2018-12-26T08:36:55.050Z,460
2018-12-26T08:38:01.964Z,460
2018-12-26T08:39:09.193Z,459
2018-12-26T08:40:16.389Z,460
2018-12-26T08:41:23.578Z,460
2018-12-26T08:42:30.500Z,460
2018-12-26T08:43:37.176Z,461
2018-12-26T08:44:44.371Z,460
2018-12-26T08:45:51.570Z,460
2018-12-26T08:46:59.062Z,460
2018-12-26T08:48:06.257Z,461
2018-12-26T08:49:13.451Z,460
2018-12-26T08:50:20.657Z,462
2018-12-26T08:51:27.851Z,461
2018-12-26T08:52:34.768Z,462
2018-12-26T08:53:41.965Z,461
2018-12-26T08:54:49.156Z,461
2018-12-26T08:55:56.351Z,463
2018-12-26T08:57:03.540Z,461
2018-12-26T08:58:10.731Z,462
2018-12-26T08:59:17.923Z,462
2018-12-26T09:00:25.113Z,461
2018-12-26T09:01:32.303Z,461
2018-12-26T09:02:39.498Z,461
2018-12-26T09:03:46.697Z,460
2018-12-26T09:04:53.619Z,459
2018-12-26T09:06:00.813Z,459
2018-12-26T09:07:08.016Z,458
2018-12-26T09:08:15.216Z,458
2018-12-26T09:09:22.140Z,459
2018-12-26T09:10:29.328Z,458
2018-12-26T09:11:36.516Z,459
2018-12-26T09:12:43.712Z,459
2018-12-26T09:13:50.906Z,460
2018-12-26T09:14:58.108Z,459
2018-12-26T09:16:05.302Z,459
2018-12-26T09:17:12.223Z,458
2018-12-26T09:18:19.419Z,458
2018-12-26T09:19:26.352Z,456
2018-12-26T09:20:33.269Z,456
2018-12-26T09:21:40.466Z,456
2018-12-26T09:22:47.384Z,458
2018-12-26T09:23:54.606Z,462
2018-12-26T09:25:01.564Z,462
2018-12-26T09:26:08.753Z,461
2018-12-26T09:27:15.668Z,461
2018-12-26T09:28:22.856Z,463
2018-12-26T09:29:30.051Z,463
2018-12-26T09:30:37.251Z,464
2018-12-26T09:31:44.166Z,463
2018-12-26T09:32:51.098Z,462
2018-12-26T09:33:58.294Z,461
2018-12-26T09:35:05.490Z,460
2018-12-26T09:36:12.737Z,460
2018-12-26T09:37:19.924Z,459
2018-12-26T09:38:27.128Z,459
2018-12-26T09:39:33.784Z,464
2018-12-26T09:40:40.981Z,461
2018-12-26T09:41:48.183Z,455
2018-12-26T09:42:55.372Z,452
2018-12-26T09:44:04.721Z,453
2018-12-26T09:45:11.913Z,453
2018-12-26T09:46:19.106Z,454
2018-12-26T09:47:26.306Z,453
2018-12-26T09:48:33.225Z,456
2018-12-26T09:49:40.418Z,456
2018-12-26T09:50:47.342Z,459
2018-12-26T09:51:54.533Z,461
2018-12-26T09:53:01.725Z,463
2018-12-26T09:54:08.648Z,465
2018-12-26T09:55:15.841Z,466
2018-12-26T09:56:23.118Z,468
2018-12-26T09:57:30.311Z,467
2018-12-26T09:58:37.508Z,466
2018-12-26T09:59:44.696Z,463
2018-12-26T10:00:51.621Z,462
2018-12-26T10:01:58.821Z,462
2018-12-26T10:03:06.013Z,460
2018-12-26T10:04:13.207Z,461
2018-12-26T10:05:20.400Z,460
2018-12-26T10:06:27.321Z,460
2018-12-26T10:07:34.516Z,459
2018-12-26T10:08:43.826Z,458
2018-12-26T10:09:51.038Z,457
2018-12-26T10:10:58.228Z,456
2018-12-26T10:12:05.153Z,455
2018-12-26T10:13:12.350Z,454
2018-12-26T10:14:19.553Z,452
2018-12-26T10:15:26.748Z,448
2018-12-26T10:16:33.944Z,447
2018-12-26T10:17:41.136Z,444
2018-12-26T10:18:48.340Z,450
2018-12-26T10:19:55.259Z,460
2018-12-26T10:21:01.921Z,461
2018-12-26T10:22:08.844Z,464
2018-12-26T10:23:16.032Z,464
2018-12-26T10:24:23.226Z,464
2018-12-26T10:25:30.428Z,466
2018-12-26T10:26:37.739Z,468
2018-12-26T10:27:44.646Z,468
2018-12-26T10:28:51.835Z,470
2018-12-26T10:29:58.753Z,468
2018-12-26T10:31:05.947Z,469
2018-12-26T10:32:13.173Z,469
2018-12-26T10:33:20.371Z,469
2018-12-26T10:34:27.564Z,469
2018-12-26T10:35:34.755Z,467
2018-12-26T10:36:41.949Z,467
2018-12-26T10:37:48.867Z,467
2018-12-26T10:38:56.067Z,467
2018-12-26T10:40:03.268Z,467
2018-12-26T10:41:10.554Z,467
2018-12-26T10:42:17.758Z,469
2018-12-26T10:43:24.947Z,467
2018-12-26T10:44:32.145Z,468
2018-12-26T10:45:39.339Z,469
2018-12-26T10:46:46.269Z,469
2018-12-26T10:47:53.186Z,469
2018-12-26T10:49:00.402Z,467
2018-12-26T10:50:07.616Z,467
2018-12-26T10:51:14.808Z,467
2018-12-26T10:52:21.729Z,471
2018-12-26T10:53:28.926Z,471
2018-12-26T10:54:35.853Z,470
2018-12-26T10:55:43.051Z,468
2018-12-26T10:56:49.968Z,468
2018-12-26T10:57:56.892Z,465
2018-12-26T10:59:11.238Z,462
2018-12-26T11:00:18.438Z,458
2018-12-26T11:01:25.866Z,453
2018-12-26T11:02:33.052Z,447
2018-12-26T11:03:40.242Z,445
2018-12-26T11:04:48.631Z,444
2018-12-26T11:05:55.867Z,444
2018-12-26T11:07:03.103Z,444
2018-12-26T11:08:10.032Z,442
2018-12-26T11:09:17.223Z,444
2018-12-26T11:10:24.145Z,443
2018-12-26T11:11:30.801Z,442
2018-12-26T11:12:38.006Z,442
2018-12-26T11:13:44.927Z,443
2018-12-26T11:14:52.127Z,443
2018-12-26T11:15:59.053Z,442
2018-12-26T11:17:06.332Z,442
2018-12-26T11:18:13.252Z,444
2018-12-26T11:19:20.448Z,444
2018-12-26T11:20:27.369Z,446
2018-12-26T11:21:34.300Z,446
2018-12-26T11:22:41.513Z,444
2018-12-26T11:23:48.710Z,446
2018-12-26T11:24:55.911Z,446
2018-12-26T11:26:03.108Z,447
2018-12-26T11:27:10.307Z,447
2018-12-26T11:28:17.504Z,447
2018-12-26T11:29:24.703Z,447
2018-12-26T11:30:31.896Z,448
2018-12-26T11:31:39.117Z,446
2018-12-26T11:32:46.319Z,446
2018-12-26T11:33:53.524Z,445
2018-12-26T11:35:00.762Z,445
2018-12-26T11:36:08.007Z,446
2018-12-26T11:37:15.012Z,445
2018-12-26T11:38:22.207Z,444
2018-12-26T11:39:29.426Z,444
2018-12-26T11:40:36.624Z,445
2018-12-26T11:41:43.821Z,444
2018-12-26T11:42:51.020Z,445
2018-12-26T11:43:58.214Z,446
2018-12-26T11:45:05.143Z,447
2018-12-26T11:46:12.061Z,446
2018-12-26T11:47:19.256Z,446
2018-12-26T11:48:26.460Z,446
2018-12-26T11:49:33.662Z,446
2018-12-26T11:50:40.591Z,444
2018-12-26T11:51:47.510Z,445
2018-12-26T11:52:54.707Z,446
2018-12-26T11:54:01.904Z,446
2018-12-26T11:55:08.549Z,446
2018-12-26T11:56:15.755Z,446
2018-12-26T11:57:22.950Z,447
2018-12-26T11:58:30.238Z,446
2018-12-26T11:59:36.895Z,445
2018-12-26T12:00:44.094Z,445
2018-12-26T12:01:51.285Z,446
2018-12-26T12:02:58.486Z,446
2018-12-26T12:04:05.681Z,446
2018-12-26T12:05:12.879Z,444
2018-12-26T12:06:19.803Z,442
2018-12-26T12:07:26.997Z,443
2018-12-26T12:08:34.200Z,445
2018-12-26T12:09:41.393Z,445
2018-12-26T12:10:50.695Z,444
2018-12-26T12:11:57.915Z,445
2018-12-26T12:13:04.831Z,444
2018-12-26T12:14:12.027Z,445
2018-12-26T12:15:18.968Z,442
2018-12-26T12:16:26.159Z,444
2018-12-26T12:17:33.085Z,444
2018-12-26T12:18:40.015Z,444
2018-12-26T12:19:46.928Z,444
2018-12-26T12:20:54.127Z,445
2018-12-26T12:22:01.050Z,444
2018-12-26T12:23:08.307Z,444
2018-12-26T12:24:15.224Z,442
2018-12-26T12:25:22.422Z,444
2018-12-26T12:26:29.621Z,444
2018-12-26T12:27:36.817Z,444
2018-12-26T12:28:44.011Z,443
2018-12-26T12:29:50.934Z,443
2018-12-26T12:30:58.126Z,443
2018-12-26T12:32:05.320Z,441
2018-12-26T12:33:12.516Z,442
2018-12-26T12:34:19.712Z,442
2018-12-26T12:35:26.909Z,442
2018-12-26T12:36:34.105Z,444
2018-12-26T12:37:41.378Z,445
2018-12-26T12:38:48.652Z,445
2018-12-26T12:39:55.573Z,444
2018-12-26T12:41:02.769Z,446
2018-12-26T12:42:09.962Z,445
2018-12-26T12:43:17.161Z,445
2018-12-26T12:44:24.091Z,446
2018-12-26T12:45:31.286Z,445
2018-12-26T12:46:38.478Z,445
2018-12-26T12:47:45.678Z,446
2018-12-26T12:48:52.874Z,446
2018-12-26T12:49:59.795Z,446
2018-12-26T12:51:06.995Z,446
2018-12-26T12:52:13.913Z,446
2018-12-26T12:53:21.113Z,446
2018-12-26T12:54:28.312Z,448
2018-12-26T12:55:35.503Z,447
2018-12-26T12:56:42.696Z,446
2018-12-26T12:57:49.897Z,445
2018-12-26T12:58:57.092Z,444
2018-12-26T13:00:04.285Z,446
2018-12-26T13:01:11.208Z,445
2018-12-26T13:02:18.758Z,447
2018-12-26T13:03:25.403Z,448
2018-12-26T13:04:32.607Z,449
2018-12-26T13:05:39.807Z,449
2018-12-26T13:06:47.004Z,449
2018-12-26T13:07:54.199Z,450
2018-12-26T13:09:01.395Z,450
2018-12-26T13:10:08.584Z,450
2018-12-26T13:11:15.510Z,449
2018-12-26T13:12:22.701Z,449
2018-12-26T13:13:31.729Z,449
2018-12-26T13:14:38.739Z,449
2018-12-26T13:15:45.971Z,449
2018-12-26T13:16:53.164Z,448
2018-12-26T13:18:00.364Z,449
2018-12-26T13:19:07.593Z,448
2018-12-26T13:20:14.510Z,450
2018-12-26T13:21:21.436Z,449
2018-12-26T13:22:28.356Z,449
2018-12-26T13:23:35.554Z,450
2018-12-26T13:24:42.847Z,449
2018-12-26T13:25:50.043Z,450
2018-12-26T13:26:57.235Z,449
2018-12-26T13:28:04.432Z,450
2018-12-26T13:29:11.085Z,449
2018-12-26T13:30:18.294Z,449
2018-12-26T13:31:25.511Z,448
2018-12-26T13:32:32.716Z,448
2018-12-26T13:33:39.644Z,447
2018-12-26T13:34:46.855Z,448
2018-12-26T13:35:54.040Z,448
2018-12-26T13:37:01.233Z,447
2018-12-26T13:38:08.435Z,446
2018-12-26T13:39:15.355Z,447
2018-12-26T13:40:22.548Z,446
2018-12-26T13:41:29.739Z,447
2018-12-26T13:42:36.935Z,446
2018-12-26T13:43:44.131Z,448
2018-12-26T13:44:51.324Z,449
2018-12-26T13:45:58.521Z,451
2018-12-26T13:47:05.713Z,450
2018-12-26T13:48:12.910Z,452
2018-12-26T13:49:19.834Z,451
2018-12-26T13:50:27.021Z,451
2018-12-26T23:00:06.234Z,462
2018-12-26T23:01:13.447Z,452
2018-12-26T23:02:20.379Z,450
2018-12-26T23:03:27.600Z,449
2018-12-26T23:04:34.815Z,448
2018-12-26T23:05:42.033Z,448
2018-12-26T23:06:49.236Z,448
2018-12-26T23:07:56.445Z,448
2018-12-26T23:09:03.652Z,447
2018-12-26T23:10:10.593Z,447
2018-12-26T23:11:17.804Z,447
2018-12-26T23:12:25.006Z,447
2018-12-26T23:13:32.462Z,447
2018-12-26T23:14:39.672Z,446
2018-12-26T23:15:46.607Z,447
2018-12-26T23:16:53.817Z,447
2018-12-26T23:18:01.025Z,447
2018-12-26T23:19:08.260Z,447
2018-12-26T23:20:15.470Z,448
2018-12-26T23:21:22.393Z,448
2018-12-26T23:22:29.611Z,447
2018-12-26T23:23:36.815Z,447
2018-12-26T23:24:44.018Z,447
2018-12-26T23:25:51.222Z,447
2018-12-26T23:26:58.435Z,448
2018-12-26T23:28:05.357Z,447
2018-12-26T23:29:12.562Z,447
2018-12-26T23:30:19.761Z,447
2018-12-26T23:31:26.954Z,447
2018-12-26T23:32:33.882Z,448
2018-12-26T23:33:41.087Z,447
2018-12-26T23:34:47.987Z,446
2018-12-26T23:35:55.187Z,447
2018-12-26T23:37:02.120Z,446
2018-12-26T23:38:09.329Z,447
2018-12-26T23:39:16.545Z,448
2018-12-26T23:40:23.947Z,447
2018-12-26T23:41:31.144Z,448
2018-12-26T23:42:38.337Z,447
2018-12-26T23:43:45.530Z,447
2018-12-26T23:44:52.737Z,447
2018-12-26T23:46:00.001Z,447
2018-12-26T23:47:07.197Z,447
2018-12-26T23:48:14.130Z,446
2018-12-26T23:49:21.327Z,447
2018-12-26T23:50:28.527Z,446
2018-12-26T23:51:35.450Z,448
2018-12-26T23:52:42.648Z,447
2018-12-26T23:53:49.842Z,446
2018-12-26T23:54:57.055Z,447
2018-12-26T23:56:04.255Z,448
2018-12-26T23:57:11.450Z,446
2018-12-26T23:58:18.643Z,447
2018-12-26T23:59:25.859Z,447
